Time;durP1;ratioP1;P1;durP2;ratioP2;P2;SDS_P1;SDS_P2;PMS_P1;PMS_P2;Temp;Humidity;BMP_temperature;BMP_pressure;BME280_temperature;BME280_humidity;BME280_pressure;Samples;Min_cycle;Max_cycle;Signal;HPM_P1;HPM_P2
2022/04/23 00:00:33;;;;;;;;;;;;;;;11.90;53.68;99956.41;5047089;28;19947;-80
2022/04/23 00:02:59;;;;;;;;;;;;;;;11.94;53.07;99947.59;5053256;28;19920;-80
2022/04/23 00:05:24;;;;;;;;;;;;;;;11.92;53.31;99951.97;5054440;28;20011;-80
2022/04/23 00:07:50;;;;;;;;;;;;;;;11.95;53.17;99949.25;5061677;28;20473;-80
2022/04/23 00:10:15;;;;;;;;;;;;;;;11.88;53.27;99936.56;5048251;28;19979;-80
2022/04/23 00:12:42;;;;;;;;;;;;;;;11.93;53.06;99951.09;5051485;28;19995;-80
2022/04/23 00:15:08;;;;;;;;;;;;;;;12.00;52.73;99949.09;5038917;28;19954;-80
2022/04/23 00:17:33;;;;;;;;;;;;;;;11.90;53.34;99946.00;5049227;28;19920;-80
2022/04/23 00:20:00;;;;;;;;;;;;;;;11.98;53.31;99948.28;5050337;28;20297;-80
2022/04/23 00:22:25;;;;;;;;;;;;;;;11.87;53.42;99950.47;5031959;28;20443;-74
2022/04/23 00:24:51;;;;;;;;;;;;;;;11.86;53.34;99952.22;5047210;28;20024;-74
2022/04/23 00:27:16;;;;;;;;;;;;;;;11.89;53.48;99956.50;5032164;28;19935;-74
2022/04/23 00:29:48;;;;;;;;;;;;;;;11.92;53.61;99954.59;5051180;28;20371;-74
2022/04/23 00:32:13;;;;;;;;;;;;;;;11.83;53.86;99954.94;5051369;28;20452;-74
2022/04/23 00:34:39;;;;;;;;;;;;;;;11.80;53.44;99952.47;5053701;28;20003;-74
2022/04/23 00:37:04;;;;;;;;;;;;;;;11.84;54.75;99961.00;5045922;28;19929;-78
2022/04/23 00:39:29;;;;;;;;;;;;;;;11.70;54.17;99958.94;5051447;28;20328;-77
2022/04/23 00:41:59;;;;;;;;;;;;;;;11.75;54.43;99962.22;5048465;28;19924;-77
2022/04/23 00:44:24;;;;;;;;;;;;;;;11.70;54.83;99958.09;5049949;28;19924;-78
2022/04/23 00:46:49;;;;;;;;;;;;;;;11.77;54.27;99962.97;5049094;28;20294;-76
2022/04/23 00:49:15;;;;;;;;;;;;;;;11.75;54.96;99962.22;5054353;28;20020;-76
2022/04/23 00:51:41;;;;;;;;;;;;;;;11.70;55.04;99958.09;5052323;28;20401;-76
2022/04/23 00:54:09;;;;;;;;;;;;;;;11.63;54.48;99962.66;5055364;28;20335;-76
2022/04/23 00:56:35;;;;;;;;;;;;;;;11.80;53.88;99957.66;5051331;28;20446;-76
2022/04/23 00:59:21;;;;;;;;;;;;;;;11.71;54.37;99960.63;5054190;28;19931;-76
2022/04/23 01:01:49;;;;;;;;;;;;;;;11.70;54.63;99951.13;5052972;28;19916;-77
2022/04/23 01:04:14;;;;;;;;;;;;;;;11.74;54.70;99949.28;5057532;28;19928;-77
2022/04/23 01:06:42;;;;;;;;;;;;;;;11.68;54.58;99952.09;5058444;28;19924;-77
2022/04/23 01:09:08;;;;;;;;;;;;;;;11.70;54.69;99952.88;5060192;28;19924;-77
2022/04/23 01:11:35;;;;;;;;;;;;;;;11.70;54.80;99948.53;5064594;28;19924;-77
2022/04/23 01:14:03;;;;;;;;;;;;;;;11.75;54.37;99946.59;5063932;28;19929;-80
2022/04/23 01:16:29;;;;;;;;;;;;;;;11.72;54.71;99958.88;5038018;28;20015;-80
2022/04/23 01:18:54;;;;;;;;;;;;;;;11.66;54.91;99951.28;5047624;28;20473;-77
2022/04/23 01:21:20;;;;;;;;;;;;;;;11.63;54.71;99948.81;5059775;28;19978;-77
2022/04/23 01:23:48;;;;;;;;;;;;;;;11.52;55.39;99944.03;5057983;28;20018;-77
2022/04/23 01:26:22;;;;;;;;;;;;;;;11.49;55.32;99941.53;5038973;28;19956;-77
2022/04/23 01:28:48;;;;;;;;;;;;;;;11.63;54.95;99948.81;5064035;28;19938;-77
2022/04/23 01:31:14;;;;;;;;;;;;;;;11.60;54.87;99938.53;5058568;28;20365;-77
2022/04/23 01:33:39;;;;;;;;;;;;;;;11.60;54.97;99946.31;5059138;28;19931;-77
2022/04/23 01:36:05;;;;;;;;;;;;;;;11.45;55.14;99946.00;5050160;28;19929;-78
2022/04/23 01:38:30;;;;;;;;;;;;;;;11.50;55.05;99938.88;5052257;28;20392;-78
2022/04/23 01:40:56;;;;;;;;;;;;;;;11.47;55.00;99936.38;5053783;28;19921;-78
2022/04/23 01:43:21;;;;;;;;;;;;;;;11.41;55.26;99934.00;5063657;28;19924;-80
2022/04/23 01:45:46;;;;;;;;;;;;;;;11.40;55.70;99940.16;5052404;28;19921;-80
2022/04/23 01:48:12;;;;;;;;;;;;;;;11.31;55.16;99937.03;5056326;28;19925;-80
2022/04/23 01:50:37;;;;;;;;;;;;;;;11.24;56.27;99938.13;5058976;28;19921;-80
2022/04/23 01:53:03;;;;;;;;;;;;;;;11.29;56.01;99938.84;5055117;28;19921;-80
2022/04/23 01:55:29;;;;;;;;;;;;;;;11.26;56.15;99939.78;5058526;28;20015;-80
2022/04/23 01:57:54;;;;;;;;;;;;;;;11.28;56.87;99943.19;5070242;28;19921;-80
2022/04/23 02:00:19;;;;;;;;;;;;;;;11.25;56.75;99943.28;5053313;28;19927;-80
2022/04/23 02:02:46;;;;;;;;;;;;;;;11.20;57.03;99941.75;5054364;28;19983;-80
2022/04/23 02:05:12;;;;;;;;;;;;;;;11.11;56.59;99940.34;5057255;28;19983;-80
2022/04/23 02:07:38;;;;;;;;;;;;;;;11.11;56.61;99939.47;5061529;28;19921;-80
2022/04/23 02:10:14;;;;;;;;;;;;;;;11.05;57.27;99940.56;5060206;28;20011;-80
2022/04/23 02:12:39;;;;;;;;;;;;;;;10.93;57.32;99948.78;5060762;28;19924;-77
2022/04/23 02:15:07;;;;;;;;;;;;;;;11.03;57.12;99945.78;5062111;28;19983;-77
2022/04/23 02:17:34;;;;;;;;;;;;;;;11.05;57.04;99943.16;5053784;28;19929;-80
2022/04/23 02:20:06;;;;;;;;;;;;;;;11.07;57.20;99949.13;5056255;28;20424;-80
2022/04/23 02:22:31;;;;;;;;;;;;;;;11.05;57.21;99947.50;5057365;28;19959;-80
2022/04/23 02:24:56;;;;;;;;;;;;;;;11.07;57.28;99945.69;5029409;28;19961;-80
2022/04/23 02:27:23;;;;;;;;;;;;;;;10.94;57.21;99942.66;5044631;28;19924;-79
2022/04/23 02:29:48;;;;;;;;;;;;;;;11.09;56.60;99941.31;5051044;28;20028;-78
2022/04/23 02:32:13;;;;;;;;;;;;;;;11.11;56.67;99939.47;5048228;28;20011;-78
2022/04/23 02:34:39;;;;;;;;;;;;;;;11.01;56.62;99949.34;5052352;28;19948;-78
2022/04/23 02:37:07;;;;;;;;;;;;;;;11.07;57.25;99935.28;5051289;28;19929;-78
2022/04/23 02:39:32;;;;;;;;;;;;;;;10.94;57.64;99942.66;5051908;28;19921;-78
2022/04/23 02:41:58;;;;;;;;;;;;;;;10.96;57.57;99939.13;5051927;28;19925;-77
2022/04/23 02:44:23;;;;;;;;;;;;;;;10.99;57.63;99943.38;5050883;28;20223;-76
2022/04/23 02:46:48;;;;;;;;;;;;;;;10.89;57.34;99948.03;5049055;28;19959;-76
2022/04/23 02:49:14;;;;;;;;;;;;;;;10.92;57.56;99947.94;5050117;28;19932;-78
2022/04/23 02:51:42;;;;;;;;;;;;;;;10.97;57.49;99951.22;5049324;28;20019;-78
2022/04/23 02:54:07;;;;;;;;;;;;;;;10.79;57.26;99935.44;5054857;28;19932;-80
2022/04/23 02:56:33;;;;;;;;;;;;;;;10.84;57.27;99946.50;5036271;28;19928;-80
2022/04/23 02:58:59;;;;;;;;;;;;;;;10.66;57.59;99944.53;5035203;28;20424;-77
2022/04/23 03:01:24;;;;;;;;;;;;;;;10.79;57.78;99938.03;5055427;28;19932;-77
2022/04/23 03:03:54;;;;;;;;;;;;;;;10.71;57.56;99943.47;5055963;28;19932;-77
2022/04/23 03:06:20;;;;;;;;;;;;;;;10.69;57.99;99936.66;5054350;28;19978;-77
2022/04/23 03:08:46;;;;;;;;;;;;;;;10.64;57.79;99934.19;5052372;28;19964;-77
2022/04/23 03:11:11;;;;;;;;;;;;;;;10.75;58.08;99934.69;5054401;28;19994;-80
2022/04/23 03:13:36;;;;;;;;;;;;;;;10.78;57.93;99934.59;5039464;28;20333;-79
2022/04/23 03:16:02;;;;;;;;;;;;;;;10.74;57.96;99938.19;5060003;28;19929;-80
2022/04/23 03:18:27;;;;;;;;;;;;;;;10.67;58.00;99936.69;5058664;28;19924;-79
2022/04/23 03:20:53;;;;;;;;;;;;;;;10.70;57.69;99931.38;5063723;28;19975;-79
2022/04/23 03:23:18;;;;;;;;;;;;;;;10.69;57.85;99932.31;5053776;28;20488;-77
2022/04/23 03:25:43;;;;;;;;;;;;;;;10.61;57.74;99933.47;5050579;28;20019;-76
2022/04/23 03:28:10;;;;;;;;;;;;;;;10.68;57.69;99928.00;5057313;28;19931;-76
2022/04/23 03:30:35;;;;;;;;;;;;;;;10.78;57.09;99931.13;5042700;28;19935;-76
2022/04/23 03:33:01;;;;;;;;;;;;;;;10.73;57.34;99933.06;5055116;28;19928;-76
2022/04/23 03:35:27;;;;;;;;;;;;;;;10.54;57.85;99935.44;5060787;28;19924;-80
2022/04/23 03:37:52;;;;;;;;;;;;;;;10.55;57.58;99933.69;5054673;28;19917;-79
2022/04/23 03:40:18;;;;;;;;;;;;;;;10.56;57.79;99927.56;5052426;28;20501;-78
2022/04/23 03:42:48;;;;;;;;;;;;;;;10.54;58.27;99938.03;5058989;28;19990;-78
2022/04/23 03:45:14;;;;;;;;;;;;;;;10.39;58.28;99929.00;5059992;28;19924;-78
2022/04/23 03:47:46;;;;;;;;;;;;;;;10.34;58.42;99940.44;5054760;28;20432;-78
2022/04/23 03:50:13;;;;;;;;;;;;;;;10.55;58.38;99937.13;5052685;28;20019;-78
2022/04/23 03:52:38;;;;;;;;;;;;;;;10.56;58.31;99940.56;5053997;28;20282;-78
2022/04/23 03:55:04;;;;;;;;;;;;;;;10.37;58.16;99937.75;5050443;28;19936;-78
2022/04/23 03:57:29;;;;;;;;;;;;;;;10.35;58.41;99939.53;5053106;28;20659;-78
2022/04/23 03:59:55;;;;;;;;;;;;;;;10.48;58.54;99938.22;5037201;28;20340;-78
2022/04/23 04:02:20;;;;;;;;;;;;;;;10.23;58.53;99935.59;5045966;28;19951;-78
2022/04/23 04:04:46;;;;;;;;;;;;;;;10.17;58.74;99934.94;5030218;28;19917;-78
2022/04/23 04:07:21;;;;;;;;;;;;;;;10.31;58.38;99935.34;5055350;28;20305;-78
2022/04/23 04:09:46;;;;;;;;;;;;;;;10.36;58.10;99930.84;5052347;28;19928;-80
2022/04/23 04:12:12;;;;;;;;;;;;;;;10.35;57.81;99932.59;5054550;28;19924;-79
2022/04/23 04:14:37;;;;;;;;;;;;;;;10.37;57.87;99929.97;5054076;28;19963;-78
2022/04/23 04:17:04;;;;;;;;;;;;;;;10.44;57.43;99932.28;5058114;28;19928;-78
2022/04/23 04:19:32;;;;;;;;;;;;;;;10.41;57.36;99918.56;5056230;28;20027;-78
2022/04/23 04:21:58;;;;;;;;;;;;;;;10.25;58.07;99922.56;5058175;28;19944;-78
2022/04/23 04:24:24;;;;;;;;;;;;;;;10.29;58.18;99914.63;5043662;28;20369;-79
2022/04/23 04:26:50;;;;;;;;;;;;;;;10.37;57.95;99925.59;5034775;28;19932;-80
2022/04/23 04:29:16;;;;;;;;;;;;;;;10.21;57.67;99927.00;5048831;28;20448;-80
2022/04/23 04:31:47;;;;;;;;;;;;;;;10.36;57.09;99921.31;5050135;28;19995;-79
2022/04/23 04:34:16;;;;;;;;;;;;;;;10.27;57.10;99916.44;5054781;28;19971;-80
2022/04/23 04:36:41;;;;;;;;;;;;;;;10.15;57.60;99916.84;5056187;28;20019;-73
2022/04/23 04:39:06;;;;;;;;;;;;;;;10.20;57.72;99919.25;5060118;28;20019;-73
2022/04/23 04:41:32;;;;;;;;;;;;;;;10.21;58.20;99918.38;5055136;28;19924;-74
2022/04/23 04:43:57;;;;;;;;;;;;;;;10.12;58.23;99918.69;5058303;28;19971;-74
2022/04/23 04:46:23;;;;;;;;;;;;;;;10.21;57.60;99921.81;5052614;28;19920;-74
2022/04/23 04:48:51;;;;;;;;;;;;;;;10.08;58.10;99924.88;5057108;28;19921;-74
2022/04/23 04:51:17;;;;;;;;;;;;;;;10.10;58.09;99921.34;5050520;28;20305;-73
2022/04/23 04:53:42;;;;;;;;;;;;;;;9.97;58.91;99926.94;5035941;28;19927;-73
2022/04/23 04:56:07;;;;;;;;;;;;;;;10.16;57.70;99922.88;5050931;28;19942;-73
2022/04/23 04:58:33;;;;;;;;;;;;;;;10.00;58.75;99927.72;5053748;28;19924;-73
2022/04/23 05:00:58;;;;;;;;;;;;;;;10.19;58.49;99925.38;5052545;28;20016;-73
2022/04/23 05:03:25;;;;;;;;;;;;;;;10.28;58.22;99925.94;5049925;28;19943;-74
2022/04/23 05:05:51;;;;;;;;;;;;;;;10.16;57.80;99925.47;5053403;28;20399;-73
2022/04/23 05:08:16;;;;;;;;;;;;;;;10.28;58.61;99925.06;5052289;28;19920;-73
2022/04/23 05:10:41;;;;;;;;;;;;;;;9.99;59.18;99931.19;5049795;28;19932;-74
2022/04/23 05:13:07;;;;;;;;;;;;;;;10.08;59.02;99935.25;5052001;28;20488;-73
2022/04/23 05:15:32;;;;;;;;;;;;;;;10.22;59.25;99933.91;5034305;28;19972;-73
2022/04/23 05:17:57;;;;;;;;;;;;;;;10.18;58.95;99932.31;5058431;28;19957;-73
2022/04/23 05:20:23;;;;;;;;;;;;;;;10.22;59.01;99935.66;5049866;28;19924;-73
2022/04/23 05:22:48;;;;;;;;;;;;;;;10.24;59.38;99932.09;5052347;28;20015;-76
2022/04/23 05:25:13;;;;;;;;;;;;;;;10.19;59.70;99927.97;5057406;28;20285;-76
2022/04/23 05:27:38;;;;;;;;;;;;;;;10.24;59.76;99929.50;5052186;28;19924;-76
2022/04/23 05:30:04;;;;;;;;;;;;;;;10.39;59.45;99928.16;5048574;28;19925;-76
2022/04/23 05:32:29;;;;;;;;;;;;;;;10.32;60.01;99922.31;5046926;28;19978;-76
2022/04/23 05:34:55;;;;;;;;;;;;;;;10.37;60.03;99932.56;5050657;28;19964;-76
2022/04/23 05:37:20;;;;;;;;;;;;;;;10.40;59.84;99932.47;5050098;28;19925;-78
2022/04/23 05:39:45;;;;;;;;;;;;;;;10.35;60.24;99934.34;5050735;28;20409;-78
2022/04/23 05:42:10;;;;;;;;;;;;;;;10.35;60.49;99937.78;5037429;28;20007;-78
2022/04/23 05:44:36;;;;;;;;;;;;;;;10.41;60.87;99937.59;5051381;28;20436;-76
2022/04/23 05:47:01;;;;;;;;;;;;;;;10.50;60.46;99936.41;5057996;28;19935;-76
2022/04/23 05:49:27;;;;;;;;;;;;;;;10.51;60.56;99942.47;5037727;28;19925;-76
2022/04/23 05:51:52;;;;;;;;;;;;;;;10.54;61.09;99939.78;5055874;28;19931;-76
2022/04/23 05:54:18;;;;;;;;;;;;;;;10.59;60.37;99941.31;5045648;28;19921;-76
2022/04/23 05:56:43;;;;;;;;;;;;;;;10.53;60.85;99943.25;5050875;28;19933;-76
2022/04/23 05:59:08;;;;;;;;;;;;;;;10.49;61.77;99944.28;5045322;28;20386;-76
2022/04/23 06:01:34;;;;;;;;;;;;;;;10.62;61.47;99948.13;5049306;28;19921;-76
2022/04/23 06:03:59;;;;;;;;;;;;;;;10.54;62.02;99940.63;5053080;28;20376;-76
2022/04/23 06:06:25;;;;;;;;;;;;;;;10.67;61.96;99941.88;5055183;28;19968;-78
2022/04/23 06:08:50;;;;;;;;;;;;;;;10.63;62.09;99937.72;5049020;28;19971;-78
2022/04/23 06:11:16;;;;;;;;;;;;;;;10.67;61.80;99941.06;5051983;28;19967;-78
2022/04/23 06:13:41;;;;;;;;;;;;;;;10.73;61.90;99938.25;5052744;28;20363;-74
2022/04/23 06:16:06;;;;;;;;;;;;;;;10.85;61.94;99935.22;5042515;28;20289;-78
2022/04/23 06:18:32;;;;;;;;;;;;;;;10.92;62.20;99945.34;5048753;28;20512;-78
2022/04/23 06:20:57;;;;;;;;;;;;;;;11.03;61.17;99934.53;5050840;28;20390;-74
2022/04/23 06:23:22;;;;;;;;;;;;;;;10.94;60.95;99932.28;5061135;28;20011;-73
2022/04/23 06:25:47;;;;;;;;;;;;;;;11.03;60.22;99931.94;5045876;28;19925;-77
2022/04/23 06:28:13;;;;;;;;;;;;;;;11.03;60.36;99937.16;5053719;28;19931;-74
2022/04/23 06:30:38;;;;;;;;;;;;;;;11.02;59.99;99945.88;5051871;28;20436;-74
2022/04/23 06:33:04;;;;;;;;;;;;;;;11.12;61.22;99936.00;5053145;28;19925;-76
2022/04/23 06:35:30;;;;;;;;;;;;;;;11.09;60.33;99933.50;5047167;28;19953;-74
2022/04/23 06:37:55;;;;;;;;;;;;;;;11.19;60.28;99924.44;5062837;28;19920;-74
2022/04/23 06:40:21;;;;;;;;;;;;;;;11.19;60.53;99937.44;5058039;28;19960;-80
2022/04/23 06:42:46;;;;;;;;;;;;;;;11.19;61.46;99933.09;5064678;28;19954;-80
2022/04/23 06:45:12;;;;;;;;;;;;;;;11.18;60.68;99931.38;5054218;28;20409;-77
2022/04/23 06:47:38;;;;;;;;;;;;;;;11.24;60.60;99931.16;5048270;28;19921;-76
2022/04/23 06:50:03;;;;;;;;;;;;;;;11.18;61.19;99930.53;5058538;28;19921;-76
2022/04/23 06:52:29;;;;;;;;;;;;;;;11.33;60.34;99927.41;5056490;28;19975;-77
2022/04/23 06:54:54;;;;;;;;;;;;;;;11.31;60.80;99924.03;5054185;28;20310;-77
2022/04/23 06:57:23;;;;;;;;;;;;;;;11.30;60.56;99922.31;5048878;28;19951;-74
2022/04/23 06:59:49;;;;;;;;;;;;;;;11.31;61.74;99921.44;5048268;28;19983;-76
2022/04/23 07:02:15;;;;;;;;;;;;;;;11.44;61.14;99920.06;5049777;28;19935;-78
2022/04/23 07:04:40;;;;;;;;;;;;;;;11.48;59.82;99914.69;5049281;28;20043;-74
2022/04/23 07:07:05;;;;;;;;;;;;;;;11.49;60.15;99916.38;5051110;28;19956;-74
2022/04/23 07:09:31;;;;;;;;;;;;;;;11.53;60.32;99920.56;5053187;28;20012;-74
2022/04/23 07:11:58;;;;;;;;;;;;;;;11.59;60.33;99909.09;5047901;28;19925;-76
2022/04/23 07:14:23;;;;;;;;;;;;;;;11.68;60.24;99921.72;5031503;28;19925;-79
2022/04/23 07:16:49;;;;;;;;;;;;;;;11.71;59.65;99916.38;5030798;28;20006;-78
2022/04/23 07:19:15;;;;;;;;;;;;;;;11.78;59.17;99922.22;5056255;28;20389;-79
2022/04/23 07:21:40;;;;;;;;;;;;;;;11.95;58.05;99915.41;5051080;28;19924;-78
2022/04/23 07:24:07;;;;;;;;;;;;;;;11.94;57.37;99911.16;5049966;28;20332;-78
2022/04/23 07:26:37;;;;;;;;;;;;;;;11.96;57.46;99908.47;5047828;28;19932;-73
2022/04/23 07:29:05;;;;;;;;;;;;;;;12.13;56.67;99906.03;5050262;28;19917;-74
2022/04/23 07:31:31;;;;;;;;;;;;;;;12.13;56.14;99911.22;5041576;28;19924;-76
2022/04/23 07:39:24;;;;;;;;;;;;;;;12.06;57.34;99912.41;5048805;28;19970;-76
2022/04/23 07:41:50;;;;;;;;;;;;;;;12.21;56.64;99903.97;5054431;28;19944;-77
2022/04/23 07:44:15;;;;;;;;;;;;;;;12.19;56.74;99918.78;5055725;28;19920;-77
2022/04/23 07:46:40;;;;;;;;;;;;;;;12.21;56.75;99922.19;5049667;28;19925;-77
2022/04/23 07:49:06;;;;;;;;;;;;;;;12.27;56.14;99921.94;5030929;28;20011;-77
2022/04/23 07:51:31;;;;;;;;;;;;;;;12.32;56.23;99916.53;5057005;28;19940;-77
2022/04/23 07:53:56;;;;;;;;;;;;;;;12.33;56.12;99913.88;5046001;28;19928;-77
2022/04/23 07:56:22;;;;;;;;;;;;;;;12.27;56.86;99921.94;5053801;28;19929;-77
2022/04/23 07:58:47;;;;;;;;;;;;;;;12.26;56.39;99920.25;5050021;28;19921;-81
2022/04/23 08:01:12;;;;;;;;;;;;;;;12.36;55.61;99920.72;5060251;28;19924;-80
2022/04/23 08:03:38;;;;;;;;;;;;;;;12.33;56.09;99919.09;5046117;28;20287;-80
2022/04/23 08:06:03;;;;;;;;;;;;;;;12.26;56.55;99916.78;5034007;28;19924;-80
2022/04/23 08:08:29;;;;;;;;;;;;;;;12.29;56.83;99919.25;5031617;28;19932;-80
2022/04/23 08:10:54;;;;;;;;;;;;;;;12.28;56.43;99922.75;5049875;28;19925;-78
2022/04/23 08:13:20;;;;;;;;;;;;;;;12.29;56.25;99919.25;5031093;28;19947;-73
2022/04/23 08:15:45;;;;;;;;;;;;;;;12.41;56.86;99921.38;5057005;28;19938;-73
2022/04/23 08:18:11;;;;;;;;;;;;;;;12.42;56.48;99913.47;5035872;28;19924;-77
2022/04/23 08:20:38;;;;;;;;;;;;;;;12.46;55.93;99920.25;5050028;28;19924;-80
2022/04/23 08:23:04;;;;;;;;;;;;;;;12.40;56.83;99919.66;5052343;28;19922;-80
2022/04/23 08:25:29;;;;;;;;;;;;;;;12.42;56.32;99918.69;5050018;28;20396;-77
2022/04/23 08:30:34;;;;;;;;;;;;;;;12.40;55.95;99923.13;5033793;28;19921;-77
2022/04/23 08:30:43;;;;;;;;;;;;;;;12.52;55.77;99919.16;5048166;28;19928;-78
2022/04/23 08:33:08;;;;;;;;;;;;;;;12.66;55.26;99917.69;5046816;28;19924;-81
2022/04/23 08:35:35;;;;;;;;;;;;;;;12.69;55.14;99915.88;5053020;28;20066;-80
2022/04/23 08:38:00;;;;;;;;;;;;;;;12.59;55.97;99916.25;5055723;28;19917;-81
2022/04/23 08:40:34;;;;;;;;;;;;;;;12.55;56.23;99919.06;5045971;28;19939;-78
2022/04/23 08:42:59;;;;;;;;;;;;;;;12.61;55.48;99918.78;5055566;28;19920;-78
2022/04/23 08:45:24;;;;;;;;;;;;;;;12.68;55.70;99916.78;5058653;28;19921;-80
2022/04/23 08:47:50;;;;;;;;;;;;;;;12.69;55.32;99906.28;5055984;28;19925;-80
2022/04/23 08:50:16;;;;;;;;;;;;;;;12.69;55.03;99911.47;5035592;28;19923;-78
2022/04/23 08:52:42;;;;;;;;;;;;;;;12.69;54.83;99910.66;5060387;28;20027;-77
2022/04/23 08:55:08;;;;;;;;;;;;;;;12.69;55.09;99915.88;5044190;28;19963;-77
2022/04/23 08:57:33;;;;;;;;;;;;;;;12.77;54.82;99916.38;5055538;28;19935;-77
2022/04/23 08:59:59;;;;;;;;;;;;;;;12.73;54.10;99913.06;5050516;28;20015;-77
2022/04/23 09:02:26;;;;;;;;;;;;;;;12.78;53.81;99908.47;5053244;28;20336;-77
2022/04/23 09:04:54;;;;;;;;;;;;;;;12.85;54.36;99912.53;5054290;28;19921;-77
2022/04/23 09:07:19;;;;;;;;;;;;;;;12.83;54.25;99903.94;5059662;28;20384;-77
2022/04/23 09:09:51;;;;;;;;;;;;;;;12.82;55.18;99910.06;5052464;28;19928;-81
2022/04/23 09:12:17;;;;;;;;;;;;;;;12.87;54.56;99897.66;5060943;28;19931;-81
2022/04/23 09:14:45;;;;;;;;;;;;;;;12.87;54.93;99902.88;5066800;28;19924;-81
2022/04/23 09:25:35;;;;;;;;;;;;;;;12.96;54.14;99889.44;5052685;28;19935;-81
2022/04/23 09:28:15;;;;;;;;;;;;;;;13.20;53.60;99895.31;5051578;28;19929;-82
2022/04/23 09:30:41;;;;;;;;;;;;;;;13.42;53.20;99887.34;5047392;28;19931;-81
2022/04/23 09:33:06;;;;;;;;;;;;;;;13.46;53.19;99881.06;5059824;28;19928;-82
2022/04/23 09:35:32;;;;;;;;;;;;;;;13.51;52.77;99876.47;5045043;28;20341;-77
2022/04/23 09:38:13;;;;;;;;;;;;;;;13.51;52.68;99877.34;5050147;28;19932;-77
2022/04/23 09:40:39;;;;;;;;;;;;;;;13.53;53.14;99872.03;5050337;28;20304;-73
2022/04/23 09:43:13;;;;;;;;;;;;;;;13.55;52.76;99881.47;5050228;28;19929;-73
2022/04/23 09:45:42;;;;;;;;;;;;;;;13.55;53.01;99876.25;5048259;28;19928;-73
2022/04/23 09:48:11;;;;;;;;;;;;;;;13.51;53.10;99874.72;5045816;28;19925;-73
2022/04/23 09:50:37;;;;;;;;;;;;;;;13.43;53.06;99869.03;5045541;28;19964;-73
2022/04/23 09:53:11;;;;;;;;;;;;;;;13.44;53.12;99875.91;5047576;28;20018;-77
2022/04/23 09:55:37;;;;;;;;;;;;;;;13.49;53.03;99875.72;5047532;28;19944;-77
2022/04/23 09:58:09;;;;;;;;;;;;;;;13.51;52.90;99879.09;5048140;28;19924;-77
2022/04/23 10:00:38;;;;;;;;;;;;;;;13.58;53.14;99881.31;5048160;28;20011;-77
2022/04/23 10:03:07;;;;;;;;;;;;;;;13.56;53.61;99874.50;5049138;28;20293;-78
2022/04/23 10:05:40;;;;;;;;;;;;;;;13.60;53.34;99874.28;5050545;28;19974;-77
2022/04/23 10:08:11;;;;;;;;;;;;;;;13.60;53.62;99876.03;5061301;28;19921;-77
2022/04/23 10:10:57;;;;;;;;;;;;;;;13.69;53.10;99880.88;5059044;28;19986;-77
2022/04/23 10:13:23;;;;;;;;;;;;;;;13.61;53.41;99881.19;5051921;28;20591;-73
2022/04/23 10:15:51;;;;;;;;;;;;;;;13.57;53.90;99878.81;5052412;28;19929;-73
2022/04/23 10:18:17;;;;;;;;;;;;;;;13.48;53.72;99884.44;5052625;28;19920;-73
2022/04/23 10:20:53;;;;;;;;;;;;;;;13.45;53.97;99882.84;5050562;28;19924;-73
2022/04/23 10:23:27;;;;;;;;;;;;;;;13.49;53.93;99884.38;5048352;28;19925;-80
2022/04/23 10:26:08;;;;;;;;;;;;;;;13.53;53.50;99880.69;5050989;28;20003;-78
2022/04/23 10:28:34;;;;;;;;;;;;;;;13.55;53.90;99876.25;5054824;28;19921;-80
2022/04/23 10:31:15;;;;;;;;;;;;;;;13.61;53.15;99875.13;5050699;28;19944;-77
2022/04/23 10:33:49;;;;;;;;;;;;;;;13.64;53.22;99877.59;5051234;28;20305;-77
2022/04/23 10:36:16;;;;;;;;;;;;;;;13.64;52.95;99867.16;5051258;28;19940;-78
2022/04/23 10:38:42;;;;;;;;;;;;;;;13.63;52.98;99871.53;5056683;28;19927;-78
2022/04/23 10:41:09;;;;;;;;;;;;;;;13.66;52.62;99865.31;5044532;28;19921;-77
2022/04/23 10:43:34;;;;;;;;;;;;;;;13.66;53.04;99875.75;5048715;28;19924;-77
2022/04/23 10:46:00;;;;;;;;;;;;;;;13.68;52.80;99873.94;5051185;28;20332;-77
2022/04/23 10:48:26;;;;;;;;;;;;;;;13.72;52.77;99870.28;5049369;28;19925;-77
2022/04/23 10:51:01;;;;;;;;;;;;;;;13.72;52.21;99872.88;5058590;28;19967;-77
2022/04/23 10:53:47;;;;;;;;;;;;;;;13.76;52.28;99862.22;5047688;28;19923;-77
2022/04/23 10:56:13;;;;;;;;;;;;;;;13.76;52.39;99864.81;5039191;28;19932;-73
2022/04/23 10:58:40;;;;;;;;;;;;;;;13.75;52.38;99868.38;5050234;28;19921;-73
2022/04/23 11:01:24;;;;;;;;;;;;;;;13.70;52.21;99862.50;5057577;28;19925;-73
2022/04/23 11:04:08;;;;;;;;;;;;;;;13.83;52.59;99861.91;5050720;28;20066;-73
2022/04/23 11:12:18;;;;;;;;;;;;;;;13.80;52.93;99852.47;5055103;28;20293;-77
2022/04/23 11:14:44;;;;;;;;;;;;;;;13.80;53.02;99852.47;5062371;28;19932;-77
2022/04/23 11:17:13;;;;;;;;;;;;;;;13.83;52.49;99839.28;5047189;28;19966;-77
2022/04/23 11:19:39;;;;;;;;;;;;;;;13.85;52.29;99847.03;5052925;28;19925;-77
2022/04/23 11:22:05;;;;;;;;;;;;;;;13.87;52.53;99850.41;5050537;28;19956;-77
2022/04/23 11:24:30;;;;;;;;;;;;;;;13.89;52.48;99841.59;5054963;28;20380;-77
2022/04/23 11:26:56;;;;;;;;;;;;;;;13.91;52.28;99844.13;5040837;28;20330;-77
2022/04/23 11:29:21;;;;;;;;;;;;;;;13.98;52.35;99842.91;5052858;28;19998;-77
2022/04/23 11:31:53;;;;;;;;;;;;;;;13.97;52.00;99841.19;5054500;28;19913;-77
2022/04/23 11:34:18;;;;;;;;;;;;;;;13.98;51.97;99848.97;5059660;28;20290;-77
2022/04/23 11:36:44;;;;;;;;;;;;;;;13.99;52.22;99845.44;5054480;28;19939;-77
2022/04/23 11:39:09;;;;;;;;;;;;;;;14.02;51.77;99841.84;5049891;28;19931;-77
2022/04/23 11:41:39;;;;;;;;;;;;;;;14.03;51.78;99840.88;5053097;28;20014;-77
2022/04/23 11:44:13;;;;;;;;;;;;;;;14.03;51.58;99836.50;5052008;28;20005;-77
2022/04/23 11:46:45;;;;;;;;;;;;;;;14.00;51.96;99828.84;5060002;28;19920;-77
2022/04/23 11:49:23;;;;;;;;;;;;;;;14.03;52.24;99833.06;5055759;28;19928;-77
2022/04/23 11:51:48;;;;;;;;;;;;;;;14.03;51.76;99833.91;5051999;28;19928;-77
2022/04/23 11:54:14;;;;;;;;;;;;;;;13.98;52.20;99829.84;5046072;28;19933;-77
2022/04/23 11:56:44;;;;;;;;;;;;;;;14.02;51.79;99836.59;5052044;28;20607;-77
2022/04/23 11:59:11;;;;;;;;;;;;;;;14.06;51.85;99831.13;5047620;28;19916;-77
2022/04/23 12:01:38;;;;;;;;;;;;;;;14.03;52.02;99827.84;5049808;28;19971;-77
2022/04/23 12:04:04;;;;;;;;;;;;;;;14.05;51.90;99836.47;5045152;28;19971;-77
2022/04/23 12:06:43;;;;;;;;;;;;;;;14.09;51.91;99831.00;5051139;28;19958;-77
2022/04/23 12:09:08;;;;;;;;;;;;;;;14.07;51.82;99834.59;5049019;28;20412;-77
2022/04/23 12:11:33;;;;;;;;;;;;;;;14.08;51.79;99825.84;5047516;28;19925;-77
2022/04/23 12:14:00;;;;;;;;;;;;;;;14.11;51.07;99823.94;5049319;28;19924;-77
2022/04/23 12:16:55;;;;;;;;;;;;;;;14.21;50.88;99832.13;5046845;28;19924;-77
2022/04/23 12:19:30;;;;;;;;;;;;;;;14.17;51.31;99818.41;5044595;28;20344;-77
2022/04/23 12:21:57;;;;;;;;;;;;;;;14.21;51.46;99819.06;5049680;28;19924;-77
2022/04/23 12:24:32;;;;;;;;;;;;;;;14.33;50.63;99828.91;5045703;28;19931;-77
2022/04/23 12:27:04;;;;;;;;;;;;;;;14.34;50.99;99822.75;5052604;28;19925;-77
2022/04/23 12:40:45;;;;;;;;;;;;;;;14.46;50.27;99809.06;5051805;28;20300;-77
2022/04/23 12:43:23;;;;;;;;;;;;;;;14.35;51.13;99803.56;5057503;28;19917;-77
2022/04/23 12:45:49;;;;;;;;;;;;;;;14.36;51.24;99807.84;5039596;28;19968;-77
2022/04/23 12:48:14;;;;;;;;;;;;;;;14.37;51.03;99801.72;5050442;28;20336;-77
2022/04/23 12:50:40;;;;;;;;;;;;;;;14.43;50.91;99811.00;5057887;28;19929;-77
2022/04/23 12:53:05;;;;;;;;;;;;;;;14.40;51.29;99805.94;5031721;28;20031;-77
2022/04/23 12:55:37;;;;;;;;;;;;;;;14.33;51.01;99801.00;5048423;28;19963;-74
2022/04/23 12:58:02;;;;;;;;;;;;;;;14.48;50.73;99806.34;5045211;28;20381;-73
2022/04/23 13:00:28;;;;;;;;;;;;;;;14.35;51.73;99814.00;5048964;28;19959;-73
2022/04/23 13:02:57;;;;;;;;;;;;;;;14.34;51.13;99801.88;5054663;28;19924;-73
2022/04/23 13:05:23;;;;;;;;;;;;;;;14.31;51.08;99802.03;5052738;28;19962;-73
2022/04/23 13:10:33;;;;;;;;;;;;;;;14.37;51.33;99803.47;5056079;28;19927;-73
2022/04/23 13:12:59;;;;;;;;;;;;;;;14.36;51.15;99796.53;5052789;28;19933;-74
2022/04/23 13:15:25;;;;;;;;;;;;;;;14.37;50.97;99796.47;5055838;28;19964;-73
2022/04/23 13:17:50;;;;;;;;;;;;;;;14.43;51.28;99790.94;5040094;28;19952;-73
2022/04/23 13:20:16;;;;;;;;;;;;;;;14.37;51.17;99798.25;5045199;28;20254;-73